• Join FlightAware (Why Join?)
  • Login
  • US Flag 
07:43PM EDT


 

Airport Tracker/Info


-or-


 

Live Flight TrackerFlight Track Log ✈ UAL481 ✈ 14-Jun-2013 ✈ KALB - KORD

Flight Track Log - Related Links

Times and Time Zones

All times are in EDT time to prevent confusion due to time zone crossing. See the UAL481 flight status page for this flight to view local times or setup timezone preferences in your user account.

Time Position Orientation Groundspeed Altitude Reporting Facility
EDT Latitude Longitude Course Direction KTS MPH feet Rate Location/Type
06:41PM 42.7672 -73.8061 324° Northwest 159 183 1,200  Level Boston Center
06:42PM 42.7944 -73.8094 355° North 168 193 2,200 2,220 Climbing Boston Center
06:43PM 42.8564 -73.8619 328° Northwest 243 280 5,100 2,700 Climbing Boston Center
06:44PM 42.8029 -74.1659 284° West  Level FlightAware Approximate
06:44PM 42.8872 -73.8881 328° Northwest 272 313 6,800  Level Boston Center
06:45PM 42.8254 -74.2897 284° West  Level FlightAware Approximate
06:45PM 42.9364 -73.9461 319° Northwest 272 313 10,000  Level Boston Center
06:46PM 42.8468 -74.4140 283° West  Level FlightAware Approximate
06:46PM 42.9556 -74.0797 281° West 294 338 11,900  Level Boston Center
06:47PM 42.8698 -74.5365 324° Northwest  Level FlightAware Approximate
06:47PM 42.9661 -74.2022 277° West 348 400 14,200  Level Boston Center
06:48PM 42.9844 -74.3531 279° West 375 432 17,300 2,520 Climbing Boston Center
06:49PM 42.9969 -74.4842 277° West 375 432 19,300 1,980 Climbing Boston Center
06:50PM 43.0128 -74.6322 278° West 387 445 21,300 1,980 Climbing Boston Center
06:51PM 43.0372 -74.7753 283° West 387 445 23,300 1,740 Climbing Boston Center
06:52PM 43.0781 -74.9161 292° West 393 452 24,800 1,560 Climbing Boston Center
06:53PM 43.1142 -75.0625 289° West 403 464 26,500 1,740 Climbing Boston Center
06:54PM 43.1500 -75.2292 286° West 409 471 28,300 1,500 Climbing Boston Center
06:55PM 43.1519 -75.3972 271° West 428 493 29,500 1,020 Climbing Boston Center
06:56PM 43.1536 -75.5681 271° West 440 506 30,400 840 Climbing Boston Center
06:57PM 43.1528 -75.7475 270° West 453 521 31,200 1,140 Climbing Boston Center
06:59PM 43.1500 -76.1167 270° West 450 518 34,200 1,200 Climbing Toronto Center
07:00PM 43.1500 -76.2667 270° West 460 529 35,200 780 Climbing Toronto Center
07:01PM 43.1531 -76.4992 271° West 460 529 36,000 360 Climbing Cleveland Center
07:02PM 43.1525 -76.6614 270° West 455 524 36,000  Level Cleveland Center
07:03PM 43.1522 -76.8464 270° West 445 512 36,000  Level Cleveland Center
07:04PM 43.1492 -77.0147 269° West 445 512 36,000  Level Cleveland Center
07:05PM 43.1481 -77.1825 270° West 445 512 36,000  Level Cleveland Center
07:06PM 43.1467 -77.3506 269° West 445 512 36,000  Level Cleveland Center
07:07PM 43.1450 -77.5242 269° West 445 512 36,000  Level Cleveland Center
07:08PM 43.1411 -77.6925 268° West 450 518 36,000  Level Cleveland Center
07:09PM 43.1389 -77.8633 269° West 450 518 36,000  Level Cleveland Center
07:10PM 43.1367 -78.0369 269° West 456 525 36,000  Level Cleveland Center
07:11PM 43.1342 -78.2106 269° West 461 531 36,000  Level Cleveland Center
07:12PM 43.1311 -78.3814 269° West 461 531 36,000  Level Cleveland Center
07:13PM 43.1261 -78.5550 268° West 461 531 36,000  Level Cleveland Center
07:14PM 43.1225 -78.7231 268° West 456 525 36,000  Level Cleveland Center
07:15PM 43.1189 -78.8967 268° West 456 525 36,000  Level Cleveland Center
07:16PM 43.1000 -79.0167 258° West 450 518 36,000  Level Toronto Center
07:17PM 43.1000 -79.1833 270° West 450 518 36,000  Level Toronto Center
07:18PM 43.1000 -79.3333 270° West 440 506 36,000  Level Toronto Center
07:19PM 43.0833 -79.5167 263° West 430 495 36,000  Level Toronto Center
07:20PM 43.0833 -79.6500 270° West 430 495 36,000  Level Toronto Center
07:21PM 43.0833 -79.8333 270° West 430 495 36,000  Level Toronto Center
07:22PM 43.0667 -80.0000 262° West 430 495 36,000  Level Toronto Center
07:23PM 43.0667 -80.1500 270° West 420 483 36,000  Level Toronto Center
07:24PM 43.0667 -80.3167 270° West 420 483 36,000  Level Toronto Center
07:25PM 43.0667 -80.4833 270° West 420 483 36,000  Level Toronto Center
07:26PM 43.0500 -80.6333 261° West 420 483 36,000  Level Toronto Center
07:27PM 43.0500 -80.8000 270° West 420 483 36,000  Level Toronto Center
07:28PM 43.0333 -80.9500 261° West 420 483 36,000  Level Toronto Center
07:29PM 43.0167 -81.1167 262° West 420 483 36,000  Level Toronto Center
07:30PM 43.0167 -81.2667 270° West 410 472 36,000  Level Toronto Center
07:31PM 43.0167 -81.4333 270° West 410 472 36,000  Level Toronto Center
07:32PM 43.0167 -81.5667 270° West 410 472 36,000  Level Toronto Center
07:33PM 43.0167 -81.7500 270° West 410 472 36,000  Level Toronto Center
07:34PM 43.0167 -81.8833 270° West 410 472 36,000  Level Toronto Center
07:35PM 43.0000 -82.0500 262° West 410 472 36,000  Level Toronto Center
07:36PM 43.0000 -82.2167 270° West 410 472 36,000  Level Toronto Center
07:37PM 43.0000 -82.3500 270° West 410 472 36,000  Level Toronto Center
07:38PM 43.0000 -82.5333 270° West 410 472 36,000  Level Toronto Center
07:39PM 42.9833 -82.6667 260° West 410 472 36,000  Level Toronto Center
07:39PM 43.0025 -82.7464 288° West 417 480 36,000 -300 Level Cleveland Center
07:40PM 42.9953 -82.9022 266° West 417 480 35,600 -840 Descending Cleveland Center
07:41PM 42.9903 -83.0525 267° West 417 480 34,400 -900 Descending Cleveland Center
07:42PM 42.9867 -83.2086 268° West 411 473 33,800 -900 Descending Cleveland Center
07:43PM 42.9789 -83.3672 266° West 417 480 32,600 -720 Descending Cleveland Center
07:45PM 42.9667 -83.6167 266° West 430 495 32,000 -300 Descending Toronto Center
07:45PM 42.9686 -83.6872 272° West 422 486 32,000  Level Cleveland Center
07:46PM 42.9558 -83.8483 264° West 422 486 32,000  Level Cleveland Center
07:47PM 42.9439 -83.9756 263° West 422 486 32,000  Level Cleveland Center
07:49PM 42.9175 -84.2544 263° West 415 478 32,000  Level Chicago Center
07:50PM 42.9019 -84.4106 262° West 414 476 32,000  Level Chicago Center
07:51PM 42.8861 -84.5639 262° West 412 474 32,000  Level Chicago Center
07:52PM 42.8700 -84.7194 262° West 414 476 32,000  Level Chicago Center
07:53PM 42.8536 -84.8764 262° West 419 482 32,000  Level Chicago Center
07:54PM 42.8378 -85.0331 262° West 419 482 32,000  Level Chicago Center
07:55PM 42.8169 -85.2208 261° West 419 482 32,000 -120 Level Chicago Center
07:56PM 42.8006 -85.3775 262° West 419 482 31,800 -1,140 Descending Chicago Center
07:57PM 42.7797 -85.5364 260° West 424 488 29,700 -2,280 Descending Chicago Center
07:58PM 42.7508 -85.6956 256° West 430 495 27,200 -2,280 Descending Chicago Center
07:59PM 42.7225 -85.8511 256° West 423 487 25,000 -2,220 Descending Chicago Center
08:00PM 42.6950 -86.0056 256° West 419 482 22,700 -2,220 Descending Chicago Center
08:01PM 42.6661 -86.1603 256° West 419 482 20,500 -1,320 Descending Chicago Center
08:02PM 42.6386 -86.3047 256° West 401 461 20,000 -300 Descending Chicago Center
08:04PM 42.6069 -86.4775 256° West 396 456 20,000 -780 Level Chicago Center
08:06PM 42.5497 -86.7767 256° West 395 455 17,700 -1,380 Descending Chicago Center
08:07PM 42.5144 -86.8992 249° West 380 437 15,900 -1,860 Descending Chicago Center
08:08PM 42.4794 -87.0289 250° West 372 428 13,900 -1,980 Descending Chicago Center
08:09PM 42.4428 -87.1528 248° West 359 413 11,900 -1,860 Descending Chicago Center
08:10PM 42.4092 -87.2756 250° West 351 404 10,100 -960 Descending Chicago Center
08:11PM 42.3736 -87.4100 250° West 307 353 10,000 -60 Descending Chicago Center
08:12PM 42.3458 -87.5067 249° West 283 326 10,000 -540 Level Chicago Center
08:13PM 42.2956 -87.5792 227° Southwest 282 325 9,000 -540 Descending Chicago Center
08:14PM 42.2344 -87.6431 218° Southwest 278 320 9,000  Level Chicago Center
08:15PM 42.1747 -87.7056 218° Southwest 276 318 9,000 -480 Level Chicago Center
08:16PM 42.1133 -87.7731 219° Southwest 247 284 8,100 -660 Descending Chicago Center
08:17PM 42.0914 -87.8458 248° West 244 281 7,700 -480 Descending Chicago Center
08:17PM 42.1000 -87.8833 287° West 214 246 7,500 -600 Descending Chicago TRACON
08:18PM 42.0833 -87.9333 246° West 197 227 7,000 -300 Descending Chicago TRACON
08:19PM 42.0833 -88.0167 270° West 196 226 7,000 -420 Level Chicago TRACON
08:20PM 42.0667 -88.0833 251° West 188 216 6,200 -960 Descending Chicago TRACON
08:21PM 42.0678 -88.1464 271° West 193 222 5,200 -1,200 Descending Chicago Center
08:22PM 42.0194 -88.1644 196° South 194 223 4,100 -960 Descending Chicago Center
08:23PM 41.9781 -88.1364 153° Southeast 186 214 3,300 -720 Descending Chicago Center
08:24PM 41.9678 -88.0697 102° East 187 215 2,700 -600 Descending Chicago Center